Time;durP1;ratioP1;P1;durP2;ratioP2;P2;SDS_P1;SDS_P2;PMS_P1;PMS_P2;Temp;Humidity;BMP_temperature;BMP_pressure;BME280_temperature;BME280_humidity;BME280_pressure;Samples;Min_cycle;Max_cycle;Signal;HPM_P1;HPM_P2
2023/03/20 00:01:15;;;;;;;12.13;2.85;;;8.80;99.90;;;;;;5073775;28;20044;-81
2023/03/20 00:03:42;;;;;;;9.25;2.38;;;8.80;99.90;;;;;;5072995;28;20037;-81
2023/03/20 00:06:09;;;;;;;7.03;2.10;;;8.70;99.90;;;;;;5057301;28;20048;-81
2023/03/20 00:08:38;;;;;;;12.38;3.05;;;8.70;99.90;;;;;;5073916;28;20040;-81
2023/03/20 00:11:04;;;;;;;11.30;2.78;;;8.70;99.90;;;;;;5073602;28;20047;-81
2023/03/20 00:13:31;;;;;;;7.78;2.30;;;8.70;99.90;;;;;;5074586;28;20052;-81
2023/03/20 00:15:58;;;;;;;11.63;2.85;;;8.60;99.90;;;;;;5073883;28;20049;-81
2023/03/20 00:18:25;;;;;;;14.35;2.88;;;8.60;99.90;;;;;;5075094;28;20048;-81
2023/03/20 00:20:52;;;;;;;9.18;2.20;;;8.60;99.90;;;;;;5073486;28;20098;-81
2023/03/20 00:23:19;;;;;;;12.80;2.58;;;8.50;99.90;;;;;;5073618;28;20041;-81
2023/03/20 00:25:46;;;;;;;12.55;2.38;;;8.50;99.90;;;;;;5057137;28;20052;-81
2023/03/20 00:28:12;;;;;;;9.32;2.83;;;8.40;99.90;;;;;;5074721;28;20032;-81
2023/03/20 00:30:39;;;;;;;17.33;2.65;;;8.40;99.90;;;;;;5072554;28;20041;-81
2023/03/20 00:33:06;;;;;;;10.25;2.40;;;8.40;99.90;;;;;;5057082;28;20040;-81
2023/03/20 00:35:32;;;;;;;13.63;2.35;;;8.40;99.90;;;;;;5056084;28;20378;-81
2023/03/20 00:38:00;;;;;;;13.02;2.50;;;8.50;99.90;;;;;;5073519;28;20139;-81
2023/03/20 00:40:26;;;;;;;9.88;2.60;;;8.50;99.90;;;;;;5074121;28;20051;-81
2023/03/20 00:42:53;;;;;;;12.02;2.65;;;8.50;99.90;;;;;;5072251;28;20088;-81
2023/03/20 00:45:20;;;;;;;9.80;2.20;;;8.50;99.90;;;;;;5056961;28;20041;-81
2023/03/20 00:47:47;;;;;;;12.25;2.30;;;8.50;99.90;;;;;;5073667;28;20037;-81
2023/03/20 00:50:14;;;;;;;6.95;2.15;;;8.50;99.90;;;;;;5071736;28;20148;-81
2023/03/20 00:52:41;;;;;;;17.58;2.95;;;8.50;99.90;;;;;;5056908;28;20036;-81
2023/03/20 00:55:10;;;;;;;7.35;2.10;;;8.40;99.90;;;;;;5072584;28;20106;-81
2023/03/20 00:57:36;;;;;;;13.77;3.30;;;8.50;99.90;;;;;;5090175;28;20046;-80
2023/03/20 01:00:04;;;;;;;11.73;2.30;;;8.50;99.90;;;;;;5074221;28;20040;-80
2023/03/20 01:02:31;;;;;;;6.00;2.25;;;8.50;99.90;;;;;;5072382;28;20348;-80
2023/03/20 01:04:58;;;;;;;17.20;2.30;;;8.50;99.90;;;;;;5073295;28;20056;-80
2023/03/20 01:07:25;;;;;;;13.65;2.78;;;8.50;99.90;;;;;;5074208;28;20054;-80
2023/03/20 01:09:52;;;;;;;8.77;3.00;;;8.50;99.90;;;;;;5071997;28;20044;-80
2023/03/20 01:12:18;;;;;;;13.50;2.40;;;8.50;99.90;;;;;;5070763;28;20048;-79
2023/03/20 01:14:45;;;;;;;10.85;2.50;;;8.50;99.90;;;;;;5071499;28;20052;-80
2023/03/20 01:17:11;;;;;;;15.63;2.53;;;8.50;99.90;;;;;;5072244;28;20045;-80
2023/03/20 01:19:39;;;;;;;12.80;2.47;;;8.50;99.90;;;;;;5073708;28;20415;-80
2023/03/20 01:22:06;;;;;;;13.73;2.53;;;8.50;99.90;;;;;;5072252;28;20036;-79
2023/03/20 01:24:33;;;;;;;21.17;2.97;;;8.50;99.90;;;;;;5075036;28;20060;-80
2023/03/20 01:27:02;;;;;;;11.77;3.13;;;8.50;99.90;;;;;;5093810;28;20055;-80
2023/03/20 01:29:29;;;;;;;12.27;2.40;;;8.50;99.90;;;;;;5076600;28;20041;-80
2023/03/20 01:31:56;;;;;;;12.38;2.75;;;8.50;99.90;;;;;;5093797;28;20041;-80
2023/03/20 01:34:26;;;;;;;12.80;2.58;;;8.60;99.90;;;;;;5076765;28;20052;-80
2023/03/20 01:36:54;;;;;;;11.23;2.35;;;8.60;99.90;;;;;;5076013;28;20044;-80
2023/03/20 01:39:23;;;;;;;15.02;2.65;;;8.60;99.90;;;;;;5077003;28;20052;-80
2023/03/20 01:41:50;;;;;;;10.48;2.72;;;8.60;99.90;;;;;;5075243;28;20053;-80
2023/03/20 01:44:17;;;;;;;13.20;2.30;;;8.60;99.90;;;;;;5076636;28;20477;-80
2023/03/20 01:46:45;;;;;;;11.00;2.72;;;8.60;99.90;;;;;;5076474;28;20044;-80
2023/03/20 01:49:17;;;;;;;14.73;1.95;;;8.60;99.90;;;;;;5075755;28;20041;-80
2023/03/20 01:51:44;;;;;;;16.92;2.50;;;8.60;99.90;;;;;;5076113;28;20069;-80
2023/03/20 01:54:11;;;;;;;10.82;2.80;;;8.60;99.90;;;;;;5076469;28;20466;-80
2023/03/20 01:56:47;;;;;;;14.43;2.53;;;8.60;99.90;;;;;;5080148;28;20063;-80
2023/03/20 01:59:14;;;;;;;13.60;3.08;;;8.60;99.90;;;;;;5096675;28;20109;-79
2023/03/20 02:01:41;;;;;;;13.00;2.72;;;8.60;99.90;;;;;;5078240;28;20135;-79
2023/03/20 02:04:08;;;;;;;11.63;2.20;;;8.70;99.90;;;;;;5079716;28;20497;-80
2023/03/20 02:06:49;;;;;;;14.95;2.63;;;8.70;99.90;;;;;;5096541;28;20047;-80
2023/03/20 02:09:34;;;;;;;6.32;1.88;;;8.70;99.90;;;;;;5094818;28;20044;-80
2023/03/20 02:12:05;;;;;;;14.40;2.33;;;8.70;99.90;;;;;;5080293;28;20040;-80
2023/03/20 02:14:31;;;;;;;12.90;2.40;;;8.60;99.90;;;;;;5096366;28;20040;-80
2023/03/20 02:17:08;;;;;;;11.93;2.03;;;8.70;99.90;;;;;;5095290;28;20067;-80
2023/03/20 02:19:42;;;;;;;10.85;2.75;;;8.70;99.90;;;;;;5080135;28;20049;-80
2023/03/20 02:22:09;;;;;;;13.40;2.25;;;8.70;99.90;;;;;;5078369;28;20086;-80
2023/03/20 02:24:37;;;;;;;14.40;2.40;;;8.70;99.90;;;;;;5096192;28;20079;-80
2023/03/20 02:27:05;;;;;;;11.88;2.30;;;8.70;99.90;;;;;;5079321;28;20486;-80
2023/03/20 02:29:31;;;;;;;8.68;2.03;;;8.70;99.90;;;;;;5094996;28;20093;-80
2023/03/20 02:31:59;;;;;;;8.98;2.08;;;8.70;99.90;;;;;;5079672;28;20044;-80
2023/03/20 02:34:26;;;;;;;15.20;2.78;;;8.70;99.90;;;;;;5095986;28;20046;-80
2023/03/20 02:36:53;;;;;;;12.27;2.72;;;8.70;99.90;;;;;;5092877;28;20135;-80
2023/03/20 02:39:20;;;;;;;10.70;2.35;;;8.70;99.90;;;;;;5043732;28;20040;-80
2023/03/20 02:41:47;;;;;;;8.90;2.17;;;8.70;99.90;;;;;;5055488;28;20383;-80
2023/03/20 02:44:14;;;;;;;8.40;2.00;;;8.70;99.90;;;;;;5055367;28;20049;-81
2023/03/20 02:46:43;;;;;;;8.00;2.10;;;8.60;99.90;;;;;;5055544;28;20080;-80
2023/03/20 02:49:16;;;;;;;11.13;2.47;;;8.60;99.90;;;;;;5038623;28;20037;-80
2023/03/20 02:51:43;;;;;;;13.27;3.03;;;8.60;99.90;;;;;;5054950;28;20045;-81
2023/03/20 02:54:10;;;;;;;13.57;2.33;;;8.60;99.90;;;;;;5055291;28;20094;-81
2023/03/20 02:56:37;;;;;;;10.27;2.20;;;8.50;99.90;;;;;;5062505;28;20053;-80
2023/03/20 02:59:05;;;;;;;15.15;2.10;;;8.50;99.90;;;;;;5055262;28;20068;-80
2023/03/20 03:01:32;;;;;;;7.53;1.70;;;8.40;99.90;;;;;;5054684;28;20135;-80
2023/03/20 03:03:59;;;;;;;12.32;2.10;;;8.50;99.90;;;;;;5070582;28;20463;-81
2023/03/20 03:06:26;;;;;;;19.80;2.35;;;8.40;99.90;;;;;;5055942;28;20051;-81
2023/03/20 03:08:53;;;;;;;13.32;2.25;;;8.40;99.90;;;;;;5070380;28;20372;-81
2023/03/20 03:11:19;;;;;;;13.98;2.53;;;8.50;99.90;;;;;;5055489;28;20052;-80
2023/03/20 03:13:49;;;;;;;12.10;2.35;;;8.40;99.90;;;;;;5054900;28;20062;-80
2023/03/20 03:16:16;;;;;;;14.02;2.33;;;8.50;99.90;;;;;;5070340;28;20106;-80
2023/03/20 03:18:43;;;;;;;13.52;2.35;;;8.50;99.90;;;;;;5072376;28;20391;-80
2023/03/20 03:21:10;;;;;;;16.45;2.90;;;8.50;99.90;;;;;;5071100;28;20041;-80
2023/03/20 03:23:38;;;;;;;11.68;2.97;;;8.50;99.90;;;;;;5070320;28;20091;-80
2023/03/20 03:26:05;;;;;;;15.55;2.47;;;8.60;99.90;;;;;;5055600;28;20045;-80
2023/03/20 03:28:36;;;;;;;22.80;3.05;;;8.50;99.90;;;;;;5054163;28;20111;-80
2023/03/20 03:31:02;;;;;;;12.10;2.10;;;8.60;99.90;;;;;;5054115;28;20559;-80
2023/03/20 03:33:29;;;;;;;11.98;2.55;;;8.50;99.90;;;;;;5055637;28;20423;-80
2023/03/20 03:35:56;;;;;;;22.73;2.42;;;8.60;99.90;;;;;;5053390;28;20128;-79
2023/03/20 03:38:23;;;;;;;14.27;2.70;;;8.60;99.90;;;;;;5054809;28;20060;-80
2023/03/20 03:40:49;;;;;;;14.43;2.63;;;8.60;99.90;;;;;;5054040;28;20047;-80
2023/03/20 03:43:16;;;;;;;11.63;2.15;;;8.60;99.90;;;;;;5069761;28;20068;-80
2023/03/20 03:45:43;;;;;;;14.40;2.60;;;8.70;99.90;;;;;;5070785;28;20045;-80
2023/03/20 03:48:10;;;;;;;10.98;2.17;;;8.70;99.90;;;;;;5070148;28;20041;-80
2023/03/20 03:50:36;;;;;;;18.98;2.33;;;8.70;99.90;;;;;;5069320;28;20375;-80
2023/03/20 03:53:03;;;;;;;13.93;2.40;;;8.70;99.90;;;;;;5054125;28;20040;-80
2023/03/20 03:55:30;;;;;;;16.70;2.63;;;8.80;99.90;;;;;;5055732;28;20044;-80
2023/03/20 03:58:08;;;;;;;10.00;2.15;;;8.80;99.90;;;;;;5059050;28;20052;-80
2023/03/20 04:00:35;;;;;;;14.65;2.42;;;8.80;99.90;;;;;;5057058;28;20052;-80
2023/03/20 04:03:02;;;;;;;14.88;2.53;;;8.80;99.90;;;;;;5074038;28;20032;-80
2023/03/20 04:05:30;;;;;;;15.77;2.88;;;8.80;99.90;;;;;;5074117;28;20048;-80
2023/03/20 04:07:56;;;;;;;9.00;2.15;;;8.80;99.90;;;;;;5057522;28;20047;-79
2023/03/20 04:10:23;;;;;;;12.40;2.53;;;8.90;99.90;;;;;;5055797;28;20049;-80
2023/03/20 04:12:50;;;;;;;13.32;2.80;;;8.80;99.90;;;;;;5073940;28;20463;-80
2023/03/20 04:15:17;;;;;;;14.75;2.40;;;8.90;99.90;;;;;;5072940;28;20044;-80
2023/03/20 04:17:43;;;;;;;10.45;2.20;;;8.90;99.90;;;;;;5056655;28;20052;-80
2023/03/20 04:20:11;;;;;;;13.45;2.20;;;8.90;99.90;;;;;;5073335;28;20048;-80
2023/03/20 04:22:38;;;;;;;11.43;2.45;;;8.90;99.90;;;;;;5072614;28;20041;-80
2023/03/20 04:25:06;;;;;;;13.52;2.40;;;8.90;99.90;;;;;;5057157;28;20044;-80
2023/03/20 04:27:34;;;;;;;12.38;2.70;;;8.90;99.90;;;;;;5073543;28;20036;-80
2023/03/20 04:30:07;;;;;;;11.57;2.05;;;8.90;99.90;;;;;;5056699;28;20040;-81
2023/03/20 04:32:54;;;;;;;12.18;2.83;;;8.90;99.90;;;;;;5053509;28;20056;-80
2023/03/20 04:35:44;;;;;;;12.52;2.08;;;8.90;99.90;;;;;;5064570;28;20049;-80
2023/03/20 04:38:13;;;;;;;10.65;1.98;;;8.90;99.90;;;;;;5057228;28;20127;-80
2023/03/20 04:40:40;;;;;;;13.50;2.42;;;8.90;99.90;;;;;;5056541;28;20037;-80
2023/03/20 04:43:07;;;;;;;13.65;2.15;;;8.80;99.90;;;;;;5072446;28;20052;-80
2023/03/20 04:45:34;;;;;;;13.43;2.33;;;8.80;99.90;;;;;;5073442;28;20052;-80
2023/03/20 04:48:01;;;;;;;13.30;2.15;;;8.80;99.90;;;;;;5073255;28;20048;-80
2023/03/20 04:50:29;;;;;;;13.85;2.13;;;8.90;99.90;;;;;;5072204;28;20041;-80
2023/03/20 04:52:55;;;;;;;20.02;4.47;;;8.90;99.90;;;;;;5056874;28;20129;-80
2023/03/20 04:55:22;;;;;;;15.15;2.30;;;8.80;99.90;;;;;;5055686;28;20043;-81
2023/03/20 04:57:49;;;;;;;15.27;2.28;;;8.80;99.90;;;;;;5073753;28;20478;-80
2023/03/20 05:00:16;;;;;;;14.45;2.13;;;8.80;99.90;;;;;;5060457;28;20554;-80
2023/03/20 05:02:43;;;;;;;9.13;2.05;;;8.80;99.90;;;;;;5059935;28;20044;-80
2023/03/20 05:05:09;;;;;;;7.78;2.15;;;8.80;99.90;;;;;;5077446;28;20049;-80
2023/03/20 05:07:37;;;;;;;15.18;2.15;;;8.80;99.90;;;;;;5077067;28;20390;-80
2023/03/20 05:10:07;;;;;;;17.70;2.40;;;8.90;99.90;;;;;;5075914;28;20048;-80
2023/03/20 05:12:45;;;;;;;10.65;2.15;;;8.90;99.90;;;;;;5077447;28;20048;-80
2023/03/20 05:15:40;;;;;;;10.40;2.33;;;8.90;99.90;;;;;;5005763;28;20050;-80
2023/03/20 05:18:36;;;;;;;16.17;2.28;;;8.90;99.90;;;;;;5023943;28;20475;-80
2023/03/20 05:21:23;;;;;;;14.95;2.85;;;8.80;99.90;;;;;;5046418;28;20044;-80
2023/03/20 05:24:22;;;;;;;15.63;2.25;;;8.90;99.90;;;;;;5033644;28;20526;-80
2023/03/20 05:27:03;;;;;;;15.85;2.63;;;8.90;99.90;;;;;;5077008;28;20152;-80
2023/03/20 05:29:43;;;;;;;11.90;2.22;;;8.90;99.90;;;;;;5075369;28;20045;-80
2023/03/20 05:32:37;;;;;;;12.32;1.75;;;8.90;99.90;;;;;;5074116;28;20382;-80
2023/03/20 05:35:22;;;;;;;14.93;2.38;;;8.90;99.90;;;;;;5076221;28;20378;-80
2023/03/20 05:37:58;;;;;;;11.63;2.72;;;8.90;99.90;;;;;;5076656;28;20040;-80
2023/03/20 05:40:30;;;;;;;13.82;2.17;;;8.90;99.90;;;;;;5077361;28;20048;-80
2023/03/20 05:43:12;;;;;;;12.43;2.47;;;8.90;99.90;;;;;;5061028;28;20057;-80
2023/03/20 05:45:57;;;;;;;21.48;2.63;;;9.00;99.90;;;;;;5077787;28;20106;-80
2023/03/20 05:48:44;;;;;;;17.77;2.58;;;9.00;99.90;;;;;;5061796;28;20356;-80
2023/03/20 05:51:13;;;;;;;16.90;2.65;;;9.00;99.90;;;;;;5076404;28;20044;-80
2023/03/20 05:54:00;;;;;;;11.45;2.10;;;9.00;99.90;;;;;;5076332;28;20491;-80
2023/03/20 05:57:01;;;;;;;22.92;2.95;;;9.00;99.90;;;;;;5060470;28;20044;-80
2023/03/20 05:59:51;;;;;;;23.63;2.90;;;9.00;99.90;;;;;;5076830;28;20048;-81
2023/03/20 06:02:36;;;;;;;12.40;2.35;;;9.00;99.90;;;;;;5075872;28;20070;-81
2023/03/20 06:05:16;;;;;;;21.85;2.22;;;9.00;99.90;;;;;;5076305;28;20386;-80
2023/03/20 06:07:48;;;;;;;27.88;2.50;;;9.00;99.90;;;;;;5076258;28;20048;-81
2023/03/20 06:10:15;;;;;;;10.07;2.65;;;9.00;99.90;;;;;;5074129;28;20118;-81
2023/03/20 06:12:41;;;;;;;10.98;2.35;;;9.10;99.90;;;;;;5059655;28;20044;-81
2023/03/20 06:15:08;;;;;;;16.20;2.58;;;9.10;99.90;;;;;;5058454;28;20050;-81
2023/03/20 06:17:39;;;;;;;26.17;2.97;;;9.10;99.90;;;;;;5060018;28;20041;-81
2023/03/20 06:20:07;;;;;;;13.73;2.55;;;9.10;99.90;;;;;;5059019;28;20110;-81
2023/03/20 06:22:34;;;;;;;17.25;3.03;;;9.10;99.90;;;;;;5058491;28;20040;-80
2023/03/20 06:25:01;;;;;;;17.67;2.60;;;9.10;99.90;;;;;;5076111;28;20102;-81
2023/03/20 06:27:33;;;;;;;14.32;2.55;;;9.10;99.90;;;;;;5060066;28;20123;-80
2023/03/20 06:30:00;;;;;;;15.70;3.00;;;9.10;99.90;;;;;;5073845;28;20473;-79
2023/03/20 06:32:31;;;;;;;13.95;2.75;;;9.20;99.90;;;;;;5075914;28;20048;-80
2023/03/20 06:35:00;;;;;;;16.88;2.90;;;9.20;99.90;;;;;;5074823;28;20094;-80
2023/03/20 06:37:28;;;;;;;14.35;2.97;;;9.20;99.90;;;;;;5075715;28;20044;-80
2023/03/20 06:40:02;;;;;;;17.35;3.63;;;9.30;99.90;;;;;;5075344;28;20072;-81
2023/03/20 06:42:29;;;;;;;17.95;2.65;;;9.30;99.90;;;;;;5074353;28;20061;-81
2023/03/20 06:44:57;;;;;;;18.90;2.85;;;9.30;99.90;;;;;;5076594;28;20044;-80
2023/03/20 06:47:40;;;;;;;18.30;2.97;;;9.20;99.90;;;;;;5060935;28;20053;-80
2023/03/20 06:50:07;;;;;;;17.88;3.03;;;9.30;99.90;;;;;;5074077;28;20078;-80
2023/03/20 06:52:34;;;;;;;18.77;3.40;;;9.30;99.90;;;;;;5075632;28;20356;-81
2023/03/20 06:55:18;;;;;;;19.50;3.42;;;9.30;99.90;;;;;;5074558;28;20056;-80
2023/03/20 06:57:46;;;;;;;18.25;2.85;;;9.40;99.90;;;;;;5075450;28;20109;-80
2023/03/20 07:00:15;;;;;;;16.35;2.95;;;9.40;99.90;;;;;;5074966;28;20062;-80
2023/03/20 07:02:42;;;;;;;19.90;3.42;;;9.40;99.90;;;;;;5058052;28;20167;-80
2023/03/20 07:05:12;;;;;;;15.68;2.80;;;9.40;99.90;;;;;;5059395;28;20055;-80
2023/03/20 07:07:39;;;;;;;21.90;3.05;;;9.40;99.90;;;;;;5075099;28;20090;-80
2023/03/20 07:10:06;;;;;;;18.77;2.83;;;9.50;99.90;;;;;;5057086;28;20037;-80
2023/03/20 07:12:33;;;;;;;17.58;2.97;;;9.50;99.90;;;;;;5058580;28;20072;-80
2023/03/20 07:15:00;;;;;;;17.30;3.45;;;9.60;99.90;;;;;;5057377;28;20044;-80
2023/03/20 07:17:28;;;;;;;20.45;3.13;;;9.60;99.90;;;;;;5074985;28;20368;-80
2023/03/20 07:19:55;;;;;;;12.70;2.55;;;9.60;99.90;;;;;;5058024;28;20052;-80
2023/03/20 07:22:22;;;;;;;10.80;2.63;;;9.70;99.90;;;;;;5072889;28;20075;-79
2023/03/20 07:24:50;;;;;;;16.83;2.70;;;9.70;99.90;;;;;;5058418;28;20055;-79
2023/03/20 07:27:18;;;;;;;14.90;2.55;;;9.70;99.90;;;;;;5074838;28;20414;-79
2023/03/20 07:29:45;;;;;;;20.40;3.20;;;9.70;99.90;;;;;;5073439;28;20135;-79
2023/03/20 07:32:16;;;;;;;12.98;2.72;;;9.80;99.90;;;;;;5074889;28;20044;-79
2023/03/20 07:34:49;;;;;;;15.90;3.28;;;9.80;99.90;;;;;;5074500;28;20478;-80
2023/03/20 07:37:17;;;;;;;12.98;2.70;;;9.80;99.90;;;;;;5056808;28;20447;-80
2023/03/20 07:39:54;;;;;;;14.10;2.78;;;9.80;99.90;;;;;;5059008;28;20438;-79
2023/03/20 07:42:51;;;;;;;11.68;2.63;;;9.90;99.90;;;;;;5048957;28;20049;-80
2023/03/20 07:45:40;;;;;;;12.43;2.58;;;9.90;99.90;;;;;;5041160;28;20049;-80
2023/03/20 07:48:07;;;;;;;14.35;2.63;;;10.00;99.90;;;;;;5037921;28;20418;-80
2023/03/20 07:50:34;;;;;;;14.20;2.88;;;9.90;99.90;;;;;;5021415;28;20110;-79
2023/03/20 07:53:00;;;;;;;11.77;3.00;;;10.00;99.90;;;;;;5037704;28;20041;-79
2023/03/20 07:55:27;;;;;;;11.95;3.10;;;10.00;99.90;;;;;;5036429;28;20037;-79
2023/03/20 07:57:54;;;;;;;14.40;3.25;;;10.00;99.90;;;;;;5037525;28;20049;-81
2023/03/20 08:00:20;;;;;;;11.75;3.30;;;10.10;99.90;;;;;;5020987;28;20076;-80
2023/03/20 08:02:48;;;;;;;11.85;3.17;;;10.10;99.90;;;;;;5020119;28;20063;-80
2023/03/20 08:05:15;;;;;;;14.35;3.35;;;10.20;99.90;;;;;;5055016;28;20044;-79
2023/03/20 08:07:42;;;;;;;14.35;3.13;;;10.20;99.90;;;;;;5054988;28;20045;-79
2023/03/20 08:10:08;;;;;;;13.57;3.67;;;10.20;99.90;;;;;;5036035;28;20098;-80
2023/03/20 08:12:35;;;;;;;13.23;3.28;;;10.30;99.90;;;;;;5037436;28;20533;-80
2023/03/20 08:15:02;;;;;;;12.35;3.40;;;10.30;99.90;;;;;;5036366;28;20051;-80
2023/03/20 08:17:28;;;;;;;13.80;3.55;;;10.40;99.90;;;;;;5020880;28;20387;-79
2023/03/20 08:19:55;;;;;;;12.85;4.00;;;10.40;99.90;;;;;;5054434;28;20529;-80
2023/03/20 08:22:22;;;;;;;18.85;4.13;;;10.50;99.90;;;;;;5036395;28;20395;-81
2023/03/20 08:24:48;;;;;;;12.82;3.90;;;10.40;99.90;;;;;;5037378;28;20044;-79
2023/03/20 08:27:16;;;;;;;13.82;4.35;;;10.50;99.90;;;;;;5020484;28;20540;-81
2023/03/20 08:29:42;;;;;;;10.15;3.60;;;10.40;99.90;;;;;;5035308;28;20051;-80
2023/03/20 08:32:09;;;;;;;11.65;3.75;;;10.40;99.90;;;;;;5054402;28;20068;-82
2023/03/20 08:34:35;;;;;;;16.85;3.90;;;10.50;99.90;;;;;;5036865;28;20045;-82
2023/03/20 08:37:02;;;;;;;16.05;3.63;;;10.60;99.90;;;;;;5053094;28;20120;-79
2023/03/20 08:39:29;;;;;;;13.65;3.45;;;10.60;99.90;;;;;;5035597;28;20041;-81
2023/03/20 08:41:56;;;;;;;11.50;3.97;;;10.60;99.90;;;;;;5027973;28;20207;-81
2023/03/20 08:44:27;;;;;;;10.93;3.67;;;10.60;99.90;;;;;;5033653;28;20196;-81
2023/03/20 08:46:53;;;;;;;13.43;3.65;;;10.70;99.90;;;;;;5026336;28;20380;-81
2023/03/20 08:49:20;;;;;;;13.73;3.70;;;10.70;99.90;;;;;;5034475;28;20045;-83
2023/03/20 08:51:47;;;;;;;12.38;3.70;;;10.70;99.90;;;;;;5030742;28;20426;-81
2023/03/20 08:54:18;;;;;;;14.13;3.95;;;10.70;99.90;;;;;;5033767;28;20065;-81
2023/03/20 08:56:54;;;;;;;13.98;3.92;;;10.70;99.90;;;;;;5028420;28;20471;-81
2023/03/20 08:59:21;;;;;;;10.87;3.63;;;10.90;99.90;;;;;;5054267;28;20036;-81
2023/03/20 09:01:50;;;;;;;10.35;3.22;;;11.00;99.90;;;;;;5036016;28;20343;-82
2023/03/20 09:04:30;;;;;;;7.00;2.88;;;11.00;99.90;;;;;;5038104;28;20037;-81
2023/03/20 09:07:03;;;;;;;8.07;2.70;;;11.00;99.90;;;;;;5020553;28;20045;-81
2023/03/20 09:09:30;;;;;;;9.23;2.78;;;11.10;99.90;;;;;;5053000;28;20122;-81
2023/03/20 09:11:59;;;;;;;9.50;2.88;;;11.20;99.90;;;;;;5020796;28;20045;-81
2023/03/20 09:14:27;;;;;;;6.90;2.35;;;11.40;99.90;;;;;;5037146;28;20033;-81
2023/03/20 09:16:55;;;;;;;12.77;5.10;;;11.50;99.90;;;;;;5053339;28;20116;-81
2023/03/20 09:19:21;;;;;;;8.45;2.35;;;11.50;99.90;;;;;;5035734;28;20063;-80
2023/03/20 09:21:48;;;;;;;4.75;2.10;;;11.50;99.90;;;;;;5053314;28;20456;-83
2023/03/20 09:24:15;;;;;;;7.47;2.00;;;11.50;99.90;;;;;;5036745;28;20060;-84
2023/03/20 09:26:51;;;;;;;9.15;2.28;;;11.50;99.90;;;;;;5053861;28;20047;-81
2023/03/20 09:29:29;;;;;;;6.20;2.10;;;11.50;99.90;;;;;;5027238;28;20034;-82
2023/03/20 09:31:55;;;;;;;6.65;2.20;;;11.50;99.90;;;;;;5047212;28;20475;-82
2023/03/20 09:34:23;;;;;;;8.10;2.13;;;11.60;99.90;;;;;;5020899;28;20132;-86
2023/03/20 09:39:36;;;;;;;7.63;2.40;;;11.70;99.90;;;;;;5029713;28;20069;-83
2023/03/20 09:42:02;;;;;;;8.77;2.50;;;11.70;99.90;;;;;;5032302;28;20045;-80
2023/03/20 09:44:29;;;;;;;5.65;2.28;;;11.90;99.90;;;;;;5016466;28;20052;-82
2023/03/20 09:46:56;;;;;;;9.70;2.42;;;11.90;99.90;;;;;;5020083;28;20063;-83
2023/03/20 09:49:43;;;;;;;7.65;2.10;;;11.80;99.90;;;;;;5036627;28;20068;-81
2023/03/20 09:52:12;;;;;;;6.88;2.05;;;11.80;99.90;;;;;;5020355;28;20053;-79
2023/03/20 09:54:39;;;;;;;8.90;2.10;;;11.80;99.90;;;;;;5019497;28;20052;-79
2023/03/20 10:00:11;;;;;;;8.48;2.58;;;11.80;99.90;;;;;;5056775;28;20099;-81
2023/03/20 10:02:38;;;;;;;6.20;2.10;;;11.90;99.90;;;;;;5056099;28;20049;-81
2023/03/20 10:05:05;;;;;;;9.15;2.05;;;12.00;99.90;;;;;;5031905;28;20530;-82
2023/03/20 10:07:32;;;;;;;5.38;2.25;;;12.10;99.90;;;;;;5036783;28;20037;-82
2023/03/20 10:10:02;;;;;;;8.32;2.10;;;12.10;99.90;;;;;;5018223;28;20050;-82
2023/03/20 10:12:29;;;;;;;4.78;1.90;;;12.10;99.90;;;;;;5055181;28;20033;-79
2023/03/20 10:14:55;;;;;;;8.32;2.10;;;12.00;99.90;;;;;;5039145;28;20030;-80
2023/03/20 10:17:22;;;;;;;5.30;2.10;;;12.30;99.90;;;;;;5056311;28;20040;-82
2023/03/20 10:19:49;;;;;;;5.93;2.22;;;12.50;99.90;;;;;;5039203;28;20041;-82
2023/03/20 10:22:15;;;;;;;5.15;2.13;;;12.60;99.90;;;;;;5055742;28;20485;-82
2023/03/20 10:24:42;;;;;;;7.13;2.13;;;12.50;99.90;;;;;;5022619;28;20053;-82
2023/03/20 10:27:11;;;;;;;5.28;1.80;;;12.60;99.90;;;;;;5039111;28;20151;-82
2023/03/20 10:29:37;;;;;;;5.30;2.10;;;12.80;99.90;;;;;;5038023;28;20106;-82
2023/03/20 10:32:04;;;;;;;9.20;2.33;;;13.00;99.90;;;;;;5038677;28;20094;-82
2023/03/20 10:34:31;;;;;;;5.25;2.00;;;13.10;99.90;;;;;;5056531;28;20064;-84
2023/03/20 10:36:58;;;;;;;4.88;1.83;;;13.10;99.90;;;;;;5021721;28;20056;-84
2023/03/20 10:39:24;;;;;;;4.10;1.63;;;13.00;99.90;;;;;;5038557;28;20041;-84
2023/03/20 10:41:51;;;;;;;4.53;1.70;;;13.10;99.90;;;;;;5055647;28;20041;-84
2023/03/20 10:44:18;;;;;;;4.93;1.80;;;13.20;99.90;;;;;;5058118;28;20060;-84
2023/03/20 10:46:46;;;;;;;4.82;1.63;;;13.30;99.90;;;;;;5058536;28;20044;-84
2023/03/20 10:49:13;;;;;;;4.80;1.50;;;13.10;99.90;;;;;;5074283;28;20044;-84
2023/03/20 10:51:39;;;;;;;5.45;2.10;;;12.90;99.90;;;;;;5076259;28;20040;-86
2023/03/20 10:54:06;;;;;;;6.20;1.90;;;12.70;99.90;;;;;;5074632;28;20040;-82
2023/03/20 10:56:33;;;;;;;7.13;2.20;;;12.60;99.90;;;;;;5056635;28;20058;-82
2023/03/20 10:58:59;;;;;;;6.00;1.77;;;12.50;99.90;;;;;;5074428;28;20439;-81
2023/03/20 11:01:26;;;;;;;6.88;1.88;;;12.50;99.90;;;;;;5075891;28;20048;-81
2023/03/20 11:03:54;;;;;;;5.10;1.83;;;12.50;99.90;;;;;;5075037;28;20530;-82
2023/03/20 11:06:23;;;;;;;5.30;1.85;;;12.60;99.90;;;;;;5058452;28;20397;-81
2023/03/20 11:08:50;;;;;;;5.15;1.90;;;12.50;99.90;;;;;;5056938;28;20056;-81
2023/03/20 11:11:17;;;;;;;5.32;2.13;;;12.40;99.90;;;;;;5074599;28;20036;-83
2023/03/20 11:13:43;;;;;;;4.97;1.90;;;12.40;99.90;;;;;;5074657;28;20051;-80
2023/03/20 11:16:10;;;;;;;4.78;1.70;;;12.40;99.90;;;;;;5053579;28;20041;-80
2023/03/20 11:18:37;;;;;;;5.60;1.70;;;12.30;99.90;;;;;;5057680;28;20543;-80
2023/03/20 11:21:03;;;;;;;5.95;1.70;;;12.30;99.90;;;;;;5073788;28;20044;-84
2023/03/20 11:23:30;;;;;;;5.03;1.73;;;12.40;99.90;;;;;;5073322;28;20051;-80
2023/03/20 11:25:57;;;;;;;3.55;1.50;;;12.40;99.90;;;;;;5075475;28;20044;-81
2023/03/20 11:28:24;;;;;;;3.92;1.70;;;12.40;99.90;;;;;;5073732;28;20048;-81
2023/03/20 11:30:50;;;;;;;3.80;1.50;;;12.40;99.90;;;;;;5074281;28;20062;-81
2023/03/20 11:33:30;;;;;;;4.13;1.50;;;12.40;99.90;;;;;;5074322;28;20143;-81
2023/03/20 11:35:58;;;;;;;3.55;1.60;;;12.50;99.90;;;;;;5074434;28;20036;-80
2023/03/20 11:38:25;;;;;;;4.93;1.65;;;12.50;99.90;;;;;;5074226;28;20044;-82
2023/03/20 11:40:52;;;;;;;4.43;1.60;;;12.50;99.90;;;;;;5073867;28;20131;-82
2023/03/20 11:43:22;;;;;;;5.15;1.70;;;12.60;99.90;;;;;;5062620;28;20106;-84
2023/03/20 11:45:57;;;;;;;5.40;2.13;;;12.50;99.90;;;;;;5021966;28;20078;-80
2023/03/20 11:48:25;;;;;;;5.60;2.00;;;12.50;99.90;;;;;;5054160;28;20045;-80
2023/03/20 11:50:51;;;;;;;4.97;1.88;;;12.50;99.90;;;;;;5037235;28;20066;-82
2023/03/20 11:53:18;;;;;;;5.35;1.85;;;12.50;99.90;;;;;;5037170;28;20044;-82
2023/03/20 11:58:15;;;;;;;4.93;2.10;;;12.40;99.90;;;;;;5037152;28;20544;-83
2023/03/20 12:00:42;;;;;;;6.22;2.38;;;12.30;99.90;;;;;;5054326;28;20059;-82
2023/03/20 12:03:10;;;;;;;6.18;2.40;;;12.20;99.90;;;;;;5033722;28;20124;-81
2023/03/20 12:05:42;;;;;;;7.32;2.42;;;12.30;99.90;;;;;;5017584;28;20045;-81
2023/03/20 12:08:08;;;;;;;6.83;2.43;;;12.30;99.90;;;;;;5017169;28;20052;-81
2023/03/20 12:10:38;;;;;;;4.90;2.20;;;12.30;99.90;;;;;;5051171;28;20029;-83
2023/03/20 12:13:05;;;;;;;5.40;2.15;;;12.40;99.90;;;;;;5020463;28;20055;-81
2023/03/20 12:15:33;;;;;;;6.32;2.50;;;12.30;99.90;;;;;;5036475;28;20042;-79
2023/03/20 12:18:00;;;;;;;7.07;2.50;;;12.30;99.90;;;;;;5054506;28;20051;-80
2023/03/20 12:20:26;;;;;;;7.05;2.40;;;12.30;99.90;;;;;;5052707;28;20037;-79
2023/03/20 12:22:53;;;;;;;6.00;2.35;;;12.30;99.90;;;;;;5050422;28;20055;-80
2023/03/20 12:25:20;;;;;;;5.25;2.20;;;12.20;99.90;;;;;;5051609;28;20513;-80
2023/03/20 12:27:47;;;;;;;10.30;2.92;;;12.20;99.90;;;;;;5034393;28;20045;-80
2023/03/20 12:30:14;;;;;;;6.63;2.28;;;12.30;99.90;;;;;;5032428;28;20376;-80
2023/03/20 12:32:40;;;;;;;6.30;2.35;;;12.40;99.90;;;;;;5033273;28;20045;-80
2023/03/20 12:35:07;;;;;;;5.82;2.40;;;12.50;99.90;;;;;;5050849;28;20419;-80
2023/03/20 12:37:34;;;;;;;5.65;2.20;;;12.50;99.90;;;;;;5033656;28;20436;-80
2023/03/20 12:40:02;;;;;;;8.13;2.72;;;12.50;99.90;;;;;;5017327;28;20045;-80
2023/03/20 12:42:29;;;;;;;8.45;3.00;;;12.50;99.90;;;;;;5036906;28;20052;-80
2023/03/20 12:44:57;;;;;;;10.27;3.08;;;12.40;99.90;;;;;;5069739;28;20048;-80
2023/03/20 12:47:24;;;;;;;9.70;3.50;;;12.30;99.90;;;;;;5070431;28;20053;-80
2023/03/20 12:49:51;;;;;;;8.98;3.70;;;12.30;99.90;;;;;;5070428;28;20040;-80
2023/03/20 12:52:18;;;;;;;9.63;3.33;;;12.20;99.90;;;;;;5053647;28;20067;-79
2023/03/20 12:54:44;;;;;;;8.77;3.50;;;12.10;99.90;;;;;;5070663;28;20044;-80
2023/03/20 12:57:11;;;;;;;9.23;3.20;;;12.10;99.90;;;;;;5052136;28;20052;-80
2023/03/20 12:59:37;;;;;;;10.95;3.38;;;12.10;99.90;;;;;;5071955;28;20156;-81
2023/03/20 13:02:04;;;;;;;9.00;3.50;;;12.10;99.90;;;;;;5055412;28;20072;-80
2023/03/20 13:04:31;;;;;;;8.18;3.50;;;12.00;99.90;;;;;;5056251;28;20044;-81